Time;durP1;ratioP1;P1;durP2;ratioP2;P2;SDS_P1;SDS_P2;PMS_P1;PMS_P2;Temp;Humidity;BMP_temperature;BMP_pressure;BME280_temperature;BME280_humidity;BME280_pressure;Samples;Min_cycle;Max_cycle;Signal;HPM_P1;HPM_P2
2023/12/09 00:02:10;;;;;;;79.82;22.38;;;;;;;;;;5026491;28;20037;-75
2023/12/09 00:04:36;;;;;;;75.63;20.40;;;;;;;;;;5030048;28;20028;-75
2023/12/09 00:07:02;;;;;;;81.47;22.92;;;;;;;;;;5015185;28;20413;-74
2023/12/09 00:09:29;;;;;;;79.65;20.55;;;;;;;;;;5027525;28;20029;-76
2023/12/09 00:11:55;;;;;;;85.22;25.13;;;;;;;;;;5028952;28;20338;-76
2023/12/09 00:14:21;;;;;;;69.55;21.73;;;;;;;;;;5030773;28;20041;-75
2023/12/09 00:16:49;;;;;;;68.05;21.60;;;;;;;;;;5011891;28;20029;-77
2023/12/09 00:19:15;;;;;;;73.50;22.30;;;;;;;;;;5030059;28;20128;-75
2023/12/09 00:21:41;;;;;;;77.10;21.75;;;;;;;;;;5029518;28;20046;-75
2023/12/09 00:24:07;;;;;;;77.18;22.67;;;;;;;;;;5028560;28;20036;-76
2023/12/09 00:26:34;;;;;;;67.25;20.55;;;;;;;;;;5027668;28;20049;-77
2023/12/09 00:29:00;;;;;;;76.18;21.02;;;;;;;;;;5027060;28;20599;-76
2023/12/09 00:31:26;;;;;;;74.22;21.52;;;;;;;;;;5028655;28;20041;-75
2023/12/09 00:33:52;;;;;;;76.22;21.65;;;;;;;;;;5027842;28;20037;-76
2023/12/09 00:36:18;;;;;;;70.85;20.52;;;;;;;;;;5027793;28;20105;-76
2023/12/09 00:38:45;;;;;;;71.13;19.77;;;;;;;;;;5026782;28;20509;-74
2023/12/09 00:41:11;;;;;;;78.10;21.33;;;;;;;;;;5025432;28;20148;-75
2023/12/09 00:43:37;;;;;;;76.82;20.80;;;;;;;;;;5026892;28;20052;-75
2023/12/09 00:46:03;;;;;;;71.45;20.88;;;;;;;;;;5031121;28;20057;-75
2023/12/09 00:48:29;;;;;;;60.10;19.48;;;;;;;;;;5028809;28;20057;-78
2023/12/09 00:50:56;;;;;;;71.15;19.80;;;;;;;;;;5014992;28;20041;-76
2023/12/09 00:53:22;;;;;;;68.75;19.77;;;;;;;;;;5030592;28;20034;-76
2023/12/09 00:55:48;;;;;;;81.75;19.17;;;;;;;;;;5029625;28;20040;-75
2023/12/09 00:58:14;;;;;;;82.40;18.58;;;;;;;;;;5027978;28;20040;-75
2023/12/09 01:00:40;;;;;;;69.60;18.75;;;;;;;;;;5029043;28;20037;-77
2023/12/09 01:03:06;;;;;;;69.45;17.75;;;;;;;;;;5011916;28;20091;-76
2023/12/09 01:05:33;;;;;;;65.50;18.52;;;;;;;;;;5010767;28;20026;-77
2023/12/09 01:07:59;;;;;;;61.00;17.40;;;;;;;;;;5027116;28;20028;-75
2023/12/09 01:10:25;;;;;;;63.88;18.85;;;;;;;;;;5010979;28;20030;-76
2023/12/09 01:12:51;;;;;;;69.35;18.52;;;;;;;;;;5028018;28;20107;-77
2023/12/09 01:15:17;;;;;;;67.72;18.33;;;;;;;;;;5026987;28;20038;-76
2023/12/09 01:17:43;;;;;;;62.25;17.45;;;;;;;;;;5026904;28;20119;-77
2023/12/09 01:20:10;;;;;;;61.40;17.42;;;;;;;;;;5028771;28;20041;-76
2023/12/09 01:22:36;;;;;;;82.47;17.85;;;;;;;;;;5009397;28;20060;-76
2023/12/09 01:25:02;;;;;;;72.38;19.02;;;;;;;;;;5029212;28;20037;-76
2023/12/09 01:27:29;;;;;;;64.55;19.55;;;;;;;;;;5028432;28;20096;-76
2023/12/09 01:29:55;;;;;;;65.90;19.48;;;;;;;;;;5011255;28;20167;-75
2023/12/09 01:32:21;;;;;;;60.40;17.98;;;;;;;;;;5011964;28;20505;-76
2023/12/09 01:34:47;;;;;;;68.65;16.67;;;;;;;;;;5026981;28;20037;-75
2023/12/09 01:37:13;;;;;;;63.55;17.80;;;;;;;;;;5025239;28;20045;-75
2023/12/09 01:39:40;;;;;;;63.08;19.42;;;;;;;;;;5027972;28;20099;-75
2023/12/09 01:42:06;;;;;;;62.70;18.30;;;;;;;;;;5006621;28;20050;-74
2023/12/09 01:44:32;;;;;;;63.30;19.60;;;;;;;;;;5006268;28;20034;-76
2023/12/09 01:46:58;;;;;;;85.22;17.38;;;;;;;;;;5005997;28;20030;-76
2023/12/09 01:49:25;;;;;;;58.70;17.08;;;;;;;;;;5021921;28;20049;-76
2023/12/09 01:51:51;;;;;;;65.22;17.13;;;;;;;;;;5008031;28;20231;-76
2023/12/09 01:54:17;;;;;;;68.60;18.08;;;;;;;;;;5002357;28;20038;-76
2023/12/09 01:56:43;;;;;;;70.93;18.38;;;;;;;;;;5008633;28;20092;-76
2023/12/09 01:59:09;;;;;;;60.10;16.13;;;;;;;;;;5005449;28;20022;-76
2023/12/09 02:01:36;;;;;;;65.63;16.83;;;;;;;;;;5008793;28;20036;-76
2023/12/09 02:04:02;;;;;;;67.50;16.67;;;;;;;;;;5002592;28;20026;-76
2023/12/09 02:06:28;;;;;;;63.40;17.70;;;;;;;;;;5007896;28;20108;-77
2023/12/09 02:08:55;;;;;;;65.40;17.50;;;;;;;;;;5006223;28;20053;-75
2023/12/09 02:11:29;;;;;;;55.65;17.52;;;;;;;;;;5007367;28;20030;-75
2023/12/09 02:14:01;;;;;;;68.70;17.13;;;;;;;;;;5002461;28;20038;-75
2023/12/09 02:16:29;;;;;;;66.65;16.30;;;;;;;;;;5006920;28;20022;-76
2023/12/09 02:18:56;;;;;;;55.83;16.05;;;;;;;;;;5005439;28;20073;-76
2023/12/09 02:21:22;;;;;;;67.25;15.98;;;;;;;;;;5008246;28;20141;-76
2023/12/09 02:23:48;;;;;;;64.32;16.00;;;;;;;;;;5008218;28;20034;-75
2023/12/09 02:26:17;;;;;;;52.20;15.18;;;;;;;;;;5007218;28;20034;-77
2023/12/09 02:28:48;;;;;;;60.08;16.33;;;;;;;;;;5006707;28;20044;-76
2023/12/09 02:31:21;;;;;;;71.65;17.75;;;;;;;;;;5006739;28;20434;-76
2023/12/09 02:33:48;;;;;;;60.30;15.40;;;;;;;;;;5022730;28;20030;-76
2023/12/09 02:36:17;;;;;;;61.08;16.83;;;;;;;;;;5008266;28;20033;-77
2023/12/09 02:38:43;;;;;;;51.30;14.40;;;;;;;;;;5006169;28;20070;-76
2023/12/09 02:41:10;;;;;;;59.40;15.38;;;;;;;;;;5011931;28;20042;-76
2023/12/09 02:43:37;;;;;;;55.90;17.27;;;;;;;;;;5008352;28;20109;-75
2023/12/09 02:46:03;;;;;;;69.82;15.48;;;;;;;;;;5010493;28;20029;-77
2023/12/09 02:48:29;;;;;;;55.83;15.57;;;;;;;;;;5008585;28;20026;-75
2023/12/09 02:50:55;;;;;;;60.08;16.20;;;;;;;;;;5010308;28;20041;-77
2023/12/09 02:53:21;;;;;;;60.00;16.48;;;;;;;;;;5027226;28;20029;-76
2023/12/09 02:55:49;;;;;;;51.63;15.75;;;;;;;;;;5028493;28;20037;-75
2023/12/09 02:58:15;;;;;;;63.80;17.30;;;;;;;;;;5026653;28;20022;-75
2023/12/09 03:00:41;;;;;;;58.70;15.30;;;;;;;;;;5009590;28;20517;-77
2023/12/09 03:03:07;;;;;;;52.00;14.77;;;;;;;;;;4992946;28;20124;-76
2023/12/09 03:05:33;;;;;;;57.72;14.95;;;;;;;;;;5011241;28;20072;-76
2023/12/09 03:07:59;;;;;;;63.65;15.50;;;;;;;;;;5008791;28;20084;-75
2023/12/09 03:10:26;;;;;;;65.47;16.15;;;;;;;;;;5027498;28;20117;-76
2023/12/09 03:12:52;;;;;;;60.22;16.45;;;;;;;;;;5029755;28;20037;-76
2023/12/09 03:15:18;;;;;;;51.78;16.27;;;;;;;;;;5013565;28;20041;-77
2023/12/09 03:17:44;;;;;;;62.17;16.02;;;;;;;;;;5012364;28;20049;-77
2023/12/09 03:20:11;;;;;;;57.05;16.10;;;;;;;;;;5017764;28;20038;-75
2023/12/09 03:22:37;;;;;;;67.03;17.13;;;;;;;;;;5030606;28;20029;-77
2023/12/09 03:25:03;;;;;;;60.70;15.80;;;;;;;;;;5030150;28;20387;-76
2023/12/09 03:27:29;;;;;;;64.05;16.88;;;;;;;;;;5029844;28;20034;-76
2023/12/09 03:29:55;;;;;;;59.85;17.23;;;;;;;;;;5029640;28;20037;-75
2023/12/09 03:32:22;;;;;;;68.45;18.00;;;;;;;;;;5028730;28;20041;-75
2023/12/09 03:34:48;;;;;;;63.53;17.73;;;;;;;;;;5029849;28;20029;-76
2023/12/09 03:37:14;;;;;;;69.75;17.02;;;;;;;;;;5030599;28;20553;-77
2023/12/09 03:39:40;;;;;;;62.00;17.30;;;;;;;;;;5029404;28;20033;-77
2023/12/09 03:42:06;;;;;;;57.20;16.17;;;;;;;;;;5030681;28;20049;-77
2023/12/09 03:44:32;;;;;;;65.75;18.27;;;;;;;;;;5030172;28;20033;-76
2023/12/09 03:46:59;;;;;;;57.25;17.67;;;;;;;;;;5010330;28;20038;-77
2023/12/09 03:49:25;;;;;;;67.65;18.58;;;;;;;;;;5020726;28;20040;-77
2023/12/09 03:51:51;;;;;;;63.63;17.05;;;;;;;;;;5027057;28;20037;-77
2023/12/09 03:54:17;;;;;;;63.67;18.52;;;;;;;;;;5011694;28;20044;-76
2023/12/09 03:56:44;;;;;;;54.75;17.05;;;;;;;;;;5026184;28;20029;-75
2023/12/09 03:59:11;;;;;;;67.70;17.30;;;;;;;;;;5026122;28;20033;-75
2023/12/09 04:01:46;;;;;;;64.97;15.88;;;;;;;;;;5028961;28;20132;-77
2023/12/09 04:04:12;;;;;;;67.70;16.85;;;;;;;;;;5011650;28;20108;-76
2023/12/09 04:06:38;;;;;;;78.25;16.77;;;;;;;;;;5030363;28;20037;-76
2023/12/09 04:09:04;;;;;;;59.20;16.58;;;;;;;;;;5026758;28;20029;-75
2023/12/09 04:11:30;;;;;;;54.67;16.67;;;;;;;;;;5030874;28;20099;-75
2023/12/09 04:13:56;;;;;;;63.58;18.90;;;;;;;;;;5030526;28;20099;-74
2023/12/09 04:16:23;;;;;;;71.13;19.05;;;;;;;;;;5012313;28;20045;-76
2023/12/09 04:18:50;;;;;;;67.43;18.65;;;;;;;;;;5009516;28;20404;-76
2023/12/09 04:21:17;;;;;;;67.80;18.67;;;;;;;;;;5028735;28;20068;-77
2023/12/09 04:23:44;;;;;;;89.25;21.20;;;;;;;;;;5024831;28;20034;-76
2023/12/09 04:26:10;;;;;;;63.40;18.70;;;;;;;;;;5011975;28;20025;-75
2023/12/09 04:28:36;;;;;;;67.03;19.30;;;;;;;;;;5028479;28;20048;-76
2023/12/09 04:31:04;;;;;;;75.13;19.38;;;;;;;;;;5029265;28;20041;-75
2023/12/09 04:33:30;;;;;;;74.82;19.30;;;;;;;;;;5011784;28;20041;-76
2023/12/09 04:35:56;;;;;;;70.28;18.00;;;;;;;;;;5024464;28;20021;-75
2023/12/09 04:38:23;;;;;;;71.45;19.33;;;;;;;;;;5008692;28;20025;-75
2023/12/09 04:40:49;;;;;;;73.78;22.63;;;;;;;;;;4995576;28;20048;-75
2023/12/09 04:43:15;;;;;;;64.93;17.27;;;;;;;;;;5029241;28;20033;-76
2023/12/09 04:45:41;;;;;;;66.68;18.95;;;;;;;;;;5011552;28;20025;-75
2023/12/09 04:48:07;;;;;;;81.80;20.08;;;;;;;;;;5011067;28;20061;-75
2023/12/09 04:50:33;;;;;;;65.90;19.15;;;;;;;;;;5028398;28;20143;-77
2023/12/09 04:53:00;;;;;;;75.10;18.98;;;;;;;;;;5029425;28;20030;-75
2023/12/09 04:55:26;;;;;;;66.45;20.50;;;;;;;;;;5010313;28;20116;-76
2023/12/09 04:57:53;;;;;;;65.63;18.42;;;;;;;;;;5027954;28;20026;-77
2023/12/09 05:00:19;;;;;;;86.88;18.77;;;;;;;;;;5028154;28;20222;-76
2023/12/09 05:02:45;;;;;;;84.95;19.42;;;;;;;;;;5028976;28;20083;-76
2023/12/09 05:05:11;;;;;;;86.30;19.88;;;;;;;;;;5020035;28;20030;-75
2023/12/09 05:07:37;;;;;;;74.60;19.67;;;;;;;;;;5027905;28;20065;-76
2023/12/09 05:10:04;;;;;;;74.28;20.08;;;;;;;;;;5007370;28;20029;-76
2023/12/09 05:12:30;;;;;;;79.68;20.30;;;;;;;;;;5029287;28;20038;-76
2023/12/09 05:14:56;;;;;;;68.00;17.48;;;;;;;;;;5027057;28;20049;-76
2023/12/09 05:17:22;;;;;;;65.65;18.05;;;;;;;;;;5011113;28;20091;-77
2023/12/09 05:19:48;;;;;;;64.22;17.63;;;;;;;;;;5027245;28;20033;-76
2023/12/09 05:22:14;;;;;;;71.60;17.60;;;;;;;;;;5011002;28;20509;-75
2023/12/09 05:24:41;;;;;;;63.85;17.25;;;;;;;;;;5009362;28;20047;-76
2023/12/09 05:27:07;;;;;;;60.67;18.15;;;;;;;;;;5027027;28;20037;-77
2023/12/09 05:29:33;;;;;;;65.10;17.23;;;;;;;;;;5026474;28;20392;-77
2023/12/09 05:31:59;;;;;;;80.00;18.83;;;;;;;;;;5027407;28;20029;-76
2023/12/09 05:34:25;;;;;;;78.55;20.48;;;;;;;;;;5026732;28;20048;-77
2023/12/09 05:36:51;;;;;;;63.97;18.50;;;;;;;;;;5028618;28;20083;-74
2023/12/09 05:39:17;;;;;;;66.85;18.88;;;;;;;;;;5027541;28;20029;-75
2023/12/09 05:41:43;;;;;;;73.72;20.65;;;;;;;;;;5009116;28;20041;-76
2023/12/09 05:44:10;;;;;;;75.80;19.08;;;;;;;;;;5028085;28;20112;-77
2023/12/09 05:46:36;;;;;;;69.13;18.48;;;;;;;;;;5010472;28;20033;-75
2023/12/09 05:49:03;;;;;;;82.93;19.02;;;;;;;;;;5011040;28;20099;-75
2023/12/09 05:51:29;;;;;;;79.13;20.02;;;;;;;;;;5027663;28;20085;-76
2023/12/09 05:53:55;;;;;;;59.17;18.02;;;;;;;;;;5027746;28;20036;-75
2023/12/09 05:56:21;;;;;;;71.80;19.65;;;;;;;;;;5025013;28;20029;-75
2023/12/09 05:58:48;;;;;;;62.50;18.60;;;;;;;;;;5026383;28;20441;-76
2023/12/09 06:01:14;;;;;;;62.17;20.70;;;;;;;;;;5010597;28;20079;-76
2023/12/09 06:03:40;;;;;;;72.82;18.65;;;;;;;;;;5026427;28;20353;-77
2023/12/09 06:06:06;;;;;;;69.20;20.23;;;;;;;;;;5025011;28;20098;-76
2023/12/09 06:08:32;;;;;;;73.88;21.70;;;;;;;;;;5027129;28;20037;-76
2023/12/09 06:10:59;;;;;;;62.42;18.73;;;;;;;;;;5008465;28;20037;-76
2023/12/09 06:13:25;;;;;;;65.68;19.67;;;;;;;;;;5009395;28;20037;-77
2023/12/09 06:15:51;;;;;;;66.75;18.50;;;;;;;;;;5025526;28;20458;-77
2023/12/09 06:18:17;;;;;;;76.28;19.90;;;;;;;;;;5027833;28;20052;-78
2023/12/09 06:20:43;;;;;;;66.32;19.00;;;;;;;;;;5011139;28;20029;-77
2023/12/09 06:23:09;;;;;;;60.42;18.50;;;;;;;;;;5027450;28;20053;-76
2023/12/09 06:25:35;;;;;;;60.85;17.50;;;;;;;;;;5028207;28;20128;-76
2023/12/09 06:28:01;;;;;;;60.95;18.42;;;;;;;;;;5022434;28;20033;-77
2023/12/09 06:30:28;;;;;;;80.68;20.25;;;;;;;;;;5027447;28;20040;-76
2023/12/09 06:32:54;;;;;;;69.28;21.70;;;;;;;;;;5025478;28;20033;-76
2023/12/09 06:35:20;;;;;;;70.68;20.25;;;;;;;;;;5026208;28;20029;-78
2023/12/09 06:37:46;;;;;;;68.05;21.02;;;;;;;;;;5026057;28;20034;-77
2023/12/09 06:40:13;;;;;;;70.63;21.70;;;;;;;;;;5021136;28;20632;-75
2023/12/09 06:42:39;;;;;;;72.40;22.10;;;;;;;;;;5020896;28;20060;-76
2023/12/09 06:45:05;;;;;;;68.47;21.25;;;;;;;;;;5020950;28;20510;-76
2023/12/09 06:47:32;;;;;;;71.13;21.95;;;;;;;;;;5022536;28;20104;-76
2023/12/09 06:49:58;;;;;;;63.50;21.15;;;;;;;;;;5031635;28;20040;-75
2023/12/09 06:52:24;;;;;;;71.15;22.15;;;;;;;;;;5029613;28;20041;-75
2023/12/09 06:54:50;;;;;;;63.63;21.58;;;;;;;;;;5030399;28;20029;-76
2023/12/09 06:57:16;;;;;;;63.08;21.15;;;;;;;;;;5029831;28;20034;-77
2023/12/09 06:59:42;;;;;;;72.65;23.33;;;;;;;;;;5030396;28;20706;-77
2023/12/09 07:02:09;;;;;;;71.25;24.25;;;;;;;;;;5013579;28;20444;-77
2023/12/09 07:04:38;;;;;;;67.95;22.00;;;;;;;;;;5014034;28;20040;-77
2023/12/09 07:07:06;;;;;;;100.10;27.02;;;;;;;;;;5029858;28;20029;-76
2023/12/09 07:09:32;;;;;;;69.95;21.20;;;;;;;;;;5029508;28;20111;-77
2023/12/09 07:11:59;;;;;;;67.97;23.52;;;;;;;;;;5029847;28;20099;-77
2023/12/09 07:14:25;;;;;;;65.65;22.00;;;;;;;;;;5030721;28;20064;-76
2023/12/09 07:16:51;;;;;;;67.70;21.88;;;;;;;;;;5030310;28;20116;-75
2023/12/09 07:19:17;;;;;;;69.55;22.60;;;;;;;;;;5031409;28;20052;-76
2023/12/09 07:21:43;;;;;;;61.00;21.10;;;;;;;;;;5031417;28;20046;-75
2023/12/09 07:24:09;;;;;;;60.42;21.45;;;;;;;;;;4997563;28;20107;-75
2023/12/09 07:26:35;;;;;;;55.83;19.30;;;;;;;;;;5031507;28;20029;-75
2023/12/09 07:29:05;;;;;;;60.17;19.42;;;;;;;;;;5031139;28;20048;-75
2023/12/09 07:31:32;;;;;;;66.18;20.48;;;;;;;;;;5028583;28;20084;-75
2023/12/09 07:33:58;;;;;;;75.38;21.25;;;;;;;;;;5013516;28;20340;-76
2023/12/09 07:36:24;;;;;;;63.92;18.75;;;;;;;;;;5014592;28;20037;-76
2023/12/09 07:38:50;;;;;;;67.43;20.63;;;;;;;;;;5011698;28;20034;-75
2023/12/09 07:41:17;;;;;;;61.90;17.60;;;;;;;;;;5013925;28;20041;-75
2023/12/09 07:43:45;;;;;;;60.05;17.17;;;;;;;;;;5032015;28;20045;-75
2023/12/09 07:46:11;;;;;;;61.60;16.60;;;;;;;;;;5031395;28;20521;-75
2023/12/09 07:48:37;;;;;;;45.83;15.07;;;;;;;;;;5025820;28;20041;-76
2023/12/09 07:51:03;;;;;;;55.75;17.05;;;;;;;;;;5017802;28;20056;-76
2023/12/09 07:53:29;;;;;;;51.10;15.85;;;;;;;;;;5009417;28;20061;-75
2023/12/09 07:55:57;;;;;;;46.83;15.27;;;;;;;;;;5013580;28;20476;-75
2023/12/09 07:58:24;;;;;;;46.95;15.40;;;;;;;;;;5026685;28;20034;-76
2023/12/09 08:00:50;;;;;;;59.35;16.42;;;;;;;;;;5032205;28;20073;-76
2023/12/09 08:03:16;;;;;;;47.80;15.80;;;;;;;;;;5030934;28;20030;-76
2023/12/09 08:05:42;;;;;;;60.20;16.05;;;;;;;;;;5013764;28;20037;-77
2023/12/09 08:08:10;;;;;;;41.42;14.35;;;;;;;;;;5013021;28;20041;-75
2023/12/09 08:10:36;;;;;;;48.17;16.95;;;;;;;;;;5014033;28;20034;-76
2023/12/09 08:13:03;;;;;;;48.05;13.68;;;;;;;;;;5031180;28;20557;-76
2023/12/09 08:15:29;;;;;;;43.15;13.40;;;;;;;;;;5031087;28;20083;-77
2023/12/09 08:17:55;;;;;;;50.83;14.27;;;;;;;;;;5029797;28;20033;-76
2023/12/09 08:20:21;;;;;;;47.28;13.25;;;;;;;;;;5031435;28;20087;-76
2023/12/09 08:22:47;;;;;;;55.25;13.57;;;;;;;;;;5031288;28;20060;-75
2023/12/09 08:25:14;;;;;;;38.15;13.43;;;;;;;;;;5030544;28;20070;-76
2023/12/09 08:27:40;;;;;;;34.00;11.57;;;;;;;;;;5029369;28;20059;-76
2023/12/09 08:30:10;;;;;;;40.83;12.45;;;;;;;;;;5028517;28;20063;-76
2023/12/09 08:32:38;;;;;;;43.73;12.70;;;;;;;;;;5031136;28;20037;-76
2023/12/09 08:35:04;;;;;;;48.53;12.98;;;;;;;;;;5029338;28;20110;-76
2023/12/09 08:37:30;;;;;;;44.45;12.40;;;;;;;;;;5012266;28;20033;-76
2023/12/09 08:39:57;;;;;;;47.53;11.27;;;;;;;;;;5029439;28;20071;-76
2023/12/09 08:42:23;;;;;;;40.83;10.32;;;;;;;;;;5009545;28;20052;-75
2023/12/09 08:44:49;;;;;;;42.42;10.52;;;;;;;;;;5025831;28;20057;-75
2023/12/09 08:47:15;;;;;;;41.58;11.13;;;;;;;;;;5010308;28;20042;-76
2023/12/09 08:49:43;;;;;;;36.47;10.18;;;;;;;;;;5010138;28;20030;-76
2023/12/09 08:52:09;;;;;;;41.60;11.13;;;;;;;;;;4991865;28;20038;-76
2023/12/09 08:54:36;;;;;;;33.17;9.10;;;;;;;;;;5003340;28;20095;-76
2023/12/09 08:57:02;;;;;;;44.90;9.90;;;;;;;;;;4992780;28;20092;-76
2023/12/09 08:59:28;;;;;;;36.95;9.25;;;;;;;;;;5008716;28;20125;-75
2023/12/09 09:01:55;;;;;;;30.23;8.07;;;;;;;;;;5005019;28;20058;-76
2023/12/09 09:04:22;;;;;;;42.33;9.35;;;;;;;;;;5009439;28;20030;-76
2023/12/09 09:06:48;;;;;;;30.30;8.00;;;;;;;;;;5009876;28;20121;-76
2023/12/09 09:09:14;;;;;;;30.83;8.73;;;;;;;;;;5008243;28;20040;-74
2023/12/09 09:11:40;;;;;;;37.83;8.70;;;;;;;;;;5009593;28;20069;-75
2023/12/09 09:14:06;;;;;;;43.53;10.15;;;;;;;;;;5010922;28;20065;-76
2023/12/09 09:16:33;;;;;;;31.75;8.55;;;;;;;;;;5010575;28;20034;-76
2023/12/09 09:18:59;;;;;;;42.40;9.13;;;;;;;;;;5009987;28;20018;-76
2023/12/09 09:21:25;;;;;;;27.75;7.65;;;;;;;;;;5009643;28;20022;-75
2023/12/09 09:23:52;;;;;;;35.95;8.18;;;;;;;;;;5025773;28;20062;-76
2023/12/09 09:26:19;;;;;;;35.50;7.68;;;;;;;;;;5010269;28;20049;-76
2023/12/09 09:28:45;;;;;;;29.30;6.82;;;;;;;;;;5006362;28;20038;-76
2023/12/09 09:31:11;;;;;;;31.55;9.02;;;;;;;;;;5007565;28;20033;-76
2023/12/09 09:33:39;;;;;;;28.45;7.22;;;;;;;;;;5008935;28;20038;-76
2023/12/09 09:36:05;;;;;;;35.63;8.63;;;;;;;;;;5007380;28;20472;-76
2023/12/09 09:38:31;;;;;;;35.55;7.75;;;;;;;;;;5009274;28;21248;-76
2023/12/09 09:40:57;;;;;;;30.60;8.02;;;;;;;;;;5002571;28;20185;-76
2023/12/09 09:43:25;;;;;;;34.97;8.05;;;;;;;;;;5018769;28;20076;-76
2023/12/09 09:45:53;;;;;;;36.75;8.65;;;;;;;;;;5029370;28;20076;-76
2023/12/09 09:48:21;;;;;;;28.00;7.10;;;;;;;;;;5020044;28;20016;-77
2023/12/09 09:50:52;;;;;;;29.35;7.32;;;;;;;;;;5021602;28;20057;-75
2023/12/09 09:53:18;;;;;;;;;;;;;;;;;;5005420;28;20467;-76
2023/12/09 09:55:45;;;;;;;32.60;7.32;;;;;;;;;;5020888;28;19931;-77
2023/12/09 09:58:12;;;;;;;23.58;6.68;;;;;;;;;;5014974;28;20033;-74
2023/12/09 10:00:39;;;;;;;30.80;8.48;;;;;;;;;;5004543;28;20048;-76
2023/12/09 10:03:05;;;;;;;30.83;6.85;;;;;;;;;;5030161;28;20061;-75
2023/12/09 10:05:31;;;;;;;25.98;6.25;;;;;;;;;;5028223;28;20029;-76
2023/12/09 10:07:57;;;;;;;24.48;6.50;;;;;;;;;;5027849;28;20044;-76
2023/12/09 10:10:24;;;;;;;26.75;6.75;;;;;;;;;;5028783;28;20126;-76
2023/12/09 10:12:50;;;;;;;28.25;5.13;;;;;;;;;;5029842;28;20046;-75
2023/12/09 10:15:16;;;;;;;35.08;6.55;;;;;;;;;;5027925;28;20074;-76
2023/12/09 10:17:42;;;;;;;24.90;5.50;;;;;;;;;;5029259;28;20112;-76
2023/12/09 10:20:10;;;;;;;29.42;5.65;;;;;;;;;;5010426;28;20080;-76
2023/12/09 10:22:37;;;;;;;24.15;6.00;;;;;;;;;;5028802;28;20033;-76
2023/12/09 10:25:04;;;;;;;21.10;4.95;;;;;;;;;;5028010;28;20042;-76
2023/12/09 10:27:30;;;;;;;24.27;5.18;;;;;;;;;;5028940;28;20128;-76
2023/12/09 10:29:57;;;;;;;34.85;5.53;;;;;;;;;;5028183;28;20056;-76
2023/12/09 10:32:23;;;;;;;26.23;5.63;;;;;;;;;;5029306;28;20098;-76
2023/12/09 10:34:51;;;;;;;23.05;6.15;;;;;;;;;;5029328;28;20038;-76
2023/12/09 10:37:20;;;;;;;30.95;6.32;;;;;;;;;;5028666;28;20041;-76
2023/12/09 10:39:47;;;;;;;18.95;5.57;;;;;;;;;;5028006;28;20059;-75
2023/12/09 10:42:13;;;;;;;27.10;5.18;;;;;;;;;;5027293;28;20045;-75
2023/12/09 10:44:40;;;;;;;23.00;4.15;;;;;;;;;;5026509;28;20037;-75
2023/12/09 10:47:07;;;;;;;21.70;4.95;;;;;;;;;;5028286;28;20117;-76
2023/12/09 10:49:33;;;;;;;21.55;4.93;;;;;;;;;;5027071;28;20187;-76
2023/12/09 10:52:00;;;;;;;28.77;4.80;;;;;;;;;;5027533;28;20041;-75
2023/12/09 10:54:26;;;;;;;24.08;5.60;;;;;;;;;;5028990;28;20041;-76
2023/12/09 10:56:56;;;;;;;22.88;4.90;;;;;;;;;;5026050;28;20079;-76
2023/12/09 10:59:22;;;;;;;18.60;4.57;;;;;;;;;;5027381;28;20037;-76
2023/12/09 11:01:48;;;;;;;21.02;4.45;;;;;;;;;;5029308;28;20071;-76
2023/12/09 11:04:15;;;;;;;35.00;5.60;;;;;;;;;;5028292;28;20121;-76
2023/12/09 11:06:42;;;;;;;14.32;4.40;;;;;;;;;;5027374;28;20053;-76
2023/12/09 11:09:08;;;;;;;19.65;4.38;;;;;;;;;;5010991;28;20048;-76
2023/12/09 11:11:35;;;;;;;19.73;4.45;;;;;;;;;;5028415;28;20042;-76
2023/12/09 11:14:01;;;;;;;20.08;4.10;;;;;;;;;;5010228;28;20041;-74
2023/12/09 11:16:30;;;;;;;17.75;4.72;;;;;;;;;;5026806;28;20364;-75
2023/12/09 11:18:56;;;;;;;22.25;4.32;;;;;;;;;;5027842;28;20041;-76
2023/12/09 11:21:26;;;;;;;22.13;4.63;;;;;;;;;;5027325;28;20103;-75
2023/12/09 11:23:54;;;;;;;20.27;4.38;;;;;;;;;;5027616;28;20041;-75
2023/12/09 11:26:27;;;;;;;19.42;4.70;;;;;;;;;;5025733;28;20082;-76
2023/12/09 11:29:00;;;;;;;20.30;3.83;;;;;;;;;;5009859;28;20044;-77
2023/12/09 11:31:41;;;;;;;17.42;3.95;;;;;;;;;;5027117;28;20551;-76
2023/12/09 11:34:09;;;;;;;17.55;4.45;;;;;;;;;;5029097;28;20074;-74
2023/12/09 11:36:38;;;;;;;16.05;4.10;;;;;;;;;;5030286;28;20045;-76
2023/12/09 11:39:09;;;;;;;17.00;3.63;;;;;;;;;;5028648;28;20044;-77
2023/12/09 11:41:36;;;;;;;24.63;3.85;;;;;;;;;;5030930;28;20096;-75
2023/12/09 11:44:03;;;;;;;19.73;4.43;;;;;;;;;;5031839;28;20064;-76
2023/12/09 11:46:30;;;;;;;16.90;3.60;;;;;;;;;;5030803;28;20033;-75
2023/12/09 11:48:57;;;;;;;18.98;4.30;;;;;;;;;;5031996;28;20040;-76
2023/12/09 11:51:23;;;;;;;13.27;3.58;;;;;;;;;;5003532;28;20030;-78
2023/12/09 11:53:53;;;;;;;15.02;3.50;;;;;;;;;;5029345;28;20098;-74
2023/12/09 11:56:19;;;;;;;17.67;3.85;;;;;;;;;;5016035;28;20049;-75
2023/12/09 11:58:46;;;;;;;15.45;3.85;;;;;;;;;;5029010;28;20029;-76
2023/12/09 12:01:12;;;;;;;16.88;3.70;;;;;;;;;;5038123;28;20112;-76
2023/12/09 12:03:38;;;;;;;12.35;3.70;;;;;;;;;;5022475;28;20118;-75
2023/12/09 12:06:05;;;;;;;11.45;3.33;;;;;;;;;;5030067;28;20022;-75
2023/12/09 12:08:33;;;;;;;13.40;3.53;;;;;;;;;;5028757;28;20029;-74
2023/12/09 12:10:59;;;;;;;14.27;3.20;;;;;;;;;;5029088;28;20033;-76
2023/12/09 12:13:25;;;;;;;19.92;3.88;;;;;;;;;;5027039;28;20117;-76
2023/12/09 12:15:54;;;;;;;11.65;2.85;;;;;;;;;;5028956;28;20036;-76
2023/12/09 12:18:22;;;;;;;14.43;2.88;;;;;;;;;;5014194;28;20033;-75
2023/12/09 12:20:48;;;;;;;12.73;3.03;;;;;;;;;;5030238;28;20099;-76
2023/12/09 12:23:16;;;;;;;10.15;3.33;;;;;;;;;;5028211;28;20500;-75
2023/12/09 12:25:42;;;;;;;13.98;3.75;;;;;;;;;;5026610;28;20041;-76
2023/12/09 12:28:08;;;;;;;13.20;3.83;;;;;;;;;;5024954;28;20116;-74
2023/12/09 12:30:35;;;;;;;17.13;3.25;;;;;;;;;;5030136;28;20037;-75
2023/12/09 12:33:03;;;;;;;17.08;3.08;;;;;;;;;;5026837;28;20498;-75
2023/12/09 12:35:29;;;;;;;13.88;2.90;;;;;;;;;;5028212;28;20031;-76
2023/12/09 12:37:56;;;;;;;15.55;3.75;;;;;;;;;;5010494;28;20421;-76
2023/12/09 12:40:23;;;;;;;10.30;2.60;;;;;;;;;;5029605;28;20060;-77
2023/12/09 12:42:50;;;;;;;14.38;3.10;;;;;;;;;;5011900;28;20387;-75
2023/12/09 12:45:20;;;;;;;11.48;2.80;;;;;;;;;;5025016;28;20045;-76
2023/12/09 12:47:46;;;;;;;13.45;2.70;;;;;;;;;;5036327;28;20029;-75
2023/12/09 12:50:13;;;;;;;17.35;3.38;;;;;;;;;;5028778;28;20037;-76
2023/12/09 12:52:39;;;;;;;9.48;2.90;;;;;;;;;;4997533;28;20056;-75
2023/12/09 12:55:06;;;;;;;11.05;2.53;;;;;;;;;;5012376;28;20035;-74
2023/12/09 12:57:32;;;;;;;11.65;2.75;;;;;;;;;;5014315;28;20109;-76
2023/12/09 12:59:58;;;;;;;12.80;3.03;;;;;;;;;;5029276;28;20048;-76
2023/12/09 13:02:25;;;;;;;11.07;2.60;;;;;;;;;;5029540;28;20442;-75
2023/12/09 13:04:51;;;;;;;13.48;3.42;;;;;;;;;;5029029;28;20025;-75
2023/12/09 13:07:18;;;;;;;15.02;3.33;;;;;;;;;;5011691;28;20115;-76
2023/12/09 13:09:44;;;;;;;11.63;2.70;;;;;;;;;;5025727;28;20060;-75
2023/12/09 13:12:10;;;;;;;10.73;2.42;;;;;;;;;;5028817;28;20125;-75
2023/12/09 13:14:37;;;;;;;7.60;2.55;;;;;;;;;;5008737;28;20095;-76
2023/12/09 13:17:04;;;;;;;9.45;2.67;;;;;;;;;;5027843;28;20026;-77
2023/12/09 13:19:31;;;;;;;8.95;2.55;;;;;;;;;;5024356;28;20029;-76
2023/12/09 13:21:57;;;;;;;12.45;3.17;;;;;;;;;;5006947;28;20037;-76
2023/12/09 13:24:23;;;;;;;10.57;3.25;;;;;;;;;;5006986;28;20558;-75
2023/12/09 13:26:49;;;;;;;8.57;2.92;;;;;;;;;;5029431;28;20047;-75
2023/12/09 13:29:16;;;;;;;9.15;2.70;;;;;;;;;;5028462;28;20049;-76
2023/12/09 13:31:43;;;;;;;15.23;3.40;;;;;;;;;;5027580;28;20580;-76
2023/12/09 13:34:09;;;;;;;8.50;2.22;;;;;;;;;;5027165;28;20041;-76
2023/12/09 13:36:39;;;;;;;11.23;2.55;;;;;;;;;;5007912;28;20034;-76
2023/12/09 13:39:11;;;;;;;9.52;2.67;;;;;;;;;;5026995;28;20034;-76
2023/12/09 13:41:38;;;;;;;6.43;2.20;;;;;;;;;;5026414;28;20053;-75
2023/12/09 13:44:04;;;;;;;9.18;2.28;;;;;;;;;;5024509;28;20030;-77
2023/12/09 13:46:30;;;;;;;10.52;2.50;;;;;;;;;;5027183;28;20033;-75
2023/12/09 13:48:56;;;;;;;12.18;2.00;;;;;;;;;;5004072;28;20050;-77
2023/12/09 13:51:22;;;;;;;6.57;2.45;;;;;;;;;;5021540;28;20102;-75
2023/12/09 13:53:49;;;;;;;7.47;2.03;;;;;;;;;;5027557;28;20037;-76
2023/12/09 13:56:15;;;;;;;8.20;2.15;;;;;;;;;;5006239;28;20026;-76
2023/12/09 13:58:41;;;;;;;8.73;2.40;;;;;;;;;;5009757;28;20059;-77
2023/12/09 14:01:07;;;;;;;6.00;2.20;;;;;;;;;;5028073;28;20115;-76
2023/12/09 14:03:33;;;;;;;7.30;2.40;;;;;;;;;;5006251;28;20030;-76
2023/12/09 14:05:59;;;;;;;4.07;2.20;;;;;;;;;;4994139;28;20365;-76
2023/12/09 14:08:26;;;;;;;7.93;2.60;;;;;;;;;;5001305;28;20034;-76
2023/12/09 14:10:55;;;;;;;39.70;18.15;;;;;;;;;;5020979;28;20107;-76
2023/12/09 14:13:21;;;;;;;6.35;2.72;;;;;;;;;;5009878;28;20122;-75
2023/12/09 14:15:47;;;;;;;6.68;2.28;;;;;;;;;;5026001;28;20033;-77
2023/12/09 14:18:13;;;;;;;14.30;3.22;;;;;;;;;;5026977;28;20044;-78
2023/12/09 14:20:40;;;;;;;6.38;2.47;;;;;;;;;;5009041;28;20026;-76